createdAt,value
2023-03-12T00:00:08.985Z,953.1100
2023-03-12T00:00:20.072Z,953.0900
2023-03-12T00:00:31.134Z,953.1100
2023-03-12T00:00:42.204Z,953.1100
2023-03-12T00:00:53.301Z,953.1100
2023-03-12T00:01:04.343Z,953.1100
2023-03-12T00:01:15.409Z,953.0900
2023-03-12T00:01:29.939Z,953.1100
2023-03-12T00:01:41.714Z,953.1100
2023-03-12T00:01:52.784Z,953.0900
2023-03-12T00:02:03.866Z,953.1300
2023-03-12T00:02:14.969Z,953.1100
2023-03-12T00:02:26.052Z,953.0900
2023-03-12T00:02:37.147Z,953.1100
2023-03-12T00:02:48.206Z,953.0900
2023-03-12T00:02:59.313Z,953.1100
2023-03-12T00:03:10.402Z,953.0900
2023-03-12T00:03:21.517Z,953.1100
2023-03-12T00:03:32.579Z,953.1100
2023-03-12T00:03:43.788Z,953.1100
2023-03-12T00:03:54.863Z,953.1100
2023-03-12T00:04:06.072Z,953.1100
2023-03-12T00:04:17.203Z,953.1100
2023-03-12T00:04:28.255Z,953.0900
2023-03-12T00:04:39.301Z,953.0900
2023-03-12T00:04:50.348Z,953.1100
2023-03-12T00:05:01.428Z,953.0900
2023-03-12T00:05:12.478Z,953.0900
2023-03-12T00:05:23.554Z,953.1100
2023-03-12T00:05:34.608Z,953.0700
2023-03-12T00:05:45.667Z,953.0900
2023-03-12T00:05:56.732Z,953.0700
2023-03-12T00:06:10.780Z,953.0700
2023-03-12T00:06:22.316Z,953.0700
2023-03-12T00:06:33.378Z,953.0900
2023-03-12T00:06:44.435Z,953.0700
2023-03-12T00:06:55.514Z,953.0900
2023-03-12T00:07:06.738Z,953.0900
2023-03-12T00:07:17.749Z,953.0900
2023-03-12T00:07:28.830Z,953.0900
2023-03-12T00:07:39.899Z,953.0900
2023-03-12T00:07:50.968Z,953.1100
2023-03-12T00:08:02.034Z,953.1100
2023-03-12T00:08:13.106Z,953.0900
2023-03-12T00:08:24.178Z,953.0700
2023-03-12T00:08:35.275Z,953.0900
2023-03-12T00:08:46.394Z,953.0900
2023-03-12T00:08:57.421Z,953.0900
2023-03-12T00:09:08.461Z,953.0900
2023-03-12T00:09:19.518Z,953.0900
2023-03-12T00:09:30.591Z,953.0900
2023-03-12T00:09:41.665Z,953.0900
2023-03-12T00:09:52.698Z,953.0900
2023-03-12T00:10:03.746Z,953.0900
2023-03-12T00:10:14.814Z,953.0900
2023-03-12T00:10:25.901Z,953.1100
2023-03-12T00:10:36.987Z,953.0900
2023-03-12T00:10:48.030Z,953.0900
2023-03-12T00:10:59.085Z,953.0900
2023-03-12T00:11:10.152Z,953.0700
2023-03-12T00:11:21.216Z,953.0900
2023-03-12T00:11:32.284Z,953.0700
2023-03-12T00:11:43.318Z,953.0700
2023-03-12T00:11:54.366Z,953.1100
2023-03-12T00:12:05.440Z,953.1100
2023-03-12T00:12:16.537Z,953.0900
2023-03-12T00:12:27.579Z,953.0900
2023-03-12T00:12:38.636Z,953.0900
2023-03-12T00:12:49.694Z,953.1100
2023-03-12T00:13:00.803Z,953.1100
2023-03-12T00:13:11.818Z,953.0700
2023-03-12T00:13:22.885Z,953.0900
2023-03-12T00:13:33.945Z,953.1500
2023-03-12T00:13:45.030Z,953.1300
2023-03-12T00:13:56.094Z,953.1300
2023-03-12T00:14:07.128Z,953.1100
2023-03-12T00:14:18.193Z,953.1300
2023-03-12T00:14:29.261Z,953.1300
2023-03-12T00:14:40.337Z,953.1500
2023-03-12T00:14:51.375Z,953.1300
2023-03-12T00:15:02.447Z,953.1300
2023-03-12T00:15:13.500Z,953.1500
2023-03-12T00:15:24.566Z,953.1500
2023-03-12T00:15:35.657Z,953.1300
2023-03-12T00:15:46.737Z,953.1300
2023-03-12T00:15:57.832Z,953.1500
2023-03-12T00:16:08.916Z,953.1500
2023-03-12T00:16:20.047Z,953.1500
2023-03-12T00:16:31.072Z,953.1300
2023-03-12T00:16:42.124Z,953.1500
2023-03-12T00:16:53.189Z,953.1500
2023-03-12T00:17:04.249Z,953.1700
2023-03-12T00:17:15.302Z,953.1700
2023-03-12T00:17:26.415Z,953.1500
2023-03-12T00:17:37.476Z,953.1500
2023-03-12T00:17:48.517Z,953.1900
2023-03-12T00:17:59.585Z,953.1700
2023-03-12T00:18:10.646Z,953.1500
2023-03-12T00:18:21.694Z,953.1500
2023-03-12T00:18:32.789Z,953.1500
2023-03-12T00:18:43.804Z,953.1900
2023-03-12T00:18:54.879Z,953.1700
2023-03-12T00:19:05.950Z,953.1700
2023-03-12T00:19:17.036Z,953.1700
2023-03-12T00:19:28.138Z,953.1900
2023-03-12T00:19:39.159Z,953.1700
2023-03-12T00:19:50.224Z,953.1900
2023-03-12T00:20:01.286Z,953.1900
2023-03-12T00:20:12.363Z,953.1700
2023-03-12T00:20:23.420Z,953.1900
2023-03-12T00:20:34.476Z,953.1900
2023-03-12T00:20:45.548Z,953.2100
2023-03-12T00:20:56.636Z,953.1900
2023-03-12T00:21:07.697Z,953.2100
2023-03-12T00:21:18.758Z,953.2300
2023-03-12T00:21:29.838Z,953.2100
2023-03-12T00:21:40.885Z,953.2100
2023-03-12T00:21:51.935Z,953.1900
2023-03-12T00:22:02.993Z,953.1900
2023-03-12T00:22:14.045Z,953.1900
2023-03-12T00:22:25.180Z,953.2100
2023-03-12T00:22:36.267Z,953.1900
2023-03-12T00:22:47.334Z,953.1900
2023-03-12T00:22:58.404Z,953.2300
2023-03-12T00:23:09.452Z,953.2100
2023-03-12T00:23:20.500Z,953.2100
2023-03-12T00:23:31.570Z,953.2300
2023-03-12T00:23:42.637Z,953.2100
2023-03-12T00:23:53.704Z,953.2300
2023-03-12T00:24:04.770Z,953.2100
2023-03-12T00:24:15.827Z,953.2100
2023-03-12T00:24:26.896Z,953.2100
2023-03-12T00:24:37.966Z,953.2300
2023-03-12T00:24:49.032Z,953.2300
2023-03-12T00:25:00.127Z,953.2100
2023-03-12T00:25:11.150Z,953.2300
2023-03-12T00:25:22.220Z,953.2300
2023-03-12T00:25:33.302Z,953.2300
2023-03-12T00:25:46.773Z,953.2100
2023-03-12T00:25:57.989Z,953.1900
2023-03-12T00:26:09.037Z,953.1900
2023-03-12T00:26:20.089Z,953.1900
2023-03-12T00:26:31.157Z,953.2500
2023-03-12T00:26:42.193Z,953.2300
2023-03-12T00:26:53.245Z,953.2100
2023-03-12T00:27:04.310Z,953.2100
2023-03-12T00:27:15.387Z,953.2300
2023-03-12T00:27:26.421Z,953.2300
2023-03-12T00:27:37.535Z,953.2300
2023-03-12T00:27:48.586Z,953.2300
2023-03-12T00:27:59.662Z,953.2300
2023-03-12T00:28:10.739Z,953.2300
2023-03-12T00:28:21.786Z,953.2300
2023-03-12T00:28:32.827Z,953.2300
2023-03-12T00:28:43.883Z,953.2100
2023-03-12T00:28:54.970Z,953.2100
2023-03-12T00:29:06.014Z,953.2300
2023-03-12T00:29:17.067Z,953.2300
2023-03-12T00:29:28.114Z,953.1900
2023-03-12T00:29:39.152Z,953.1900
2023-03-12T00:29:50.238Z,953.2100
2023-03-12T00:30:01.282Z,953.2100
2023-03-12T00:30:12.364Z,953.2100
2023-03-12T00:30:23.429Z,953.2100
2023-03-12T00:30:34.502Z,953.2100
2023-03-12T00:30:45.556Z,953.2100
2023-03-12T00:30:57.290Z,953.2100
2023-03-12T00:31:08.446Z,953.2100
2023-03-12T00:31:19.500Z,953.2100
2023-03-12T00:31:30.623Z,953.2100
2023-03-12T00:31:41.805Z,953.2100
2023-03-12T00:31:53.018Z,953.1900
2023-03-12T00:32:04.084Z,953.1900
2023-03-12T00:32:15.207Z,953.1900
2023-03-12T00:32:26.288Z,953.2100
2023-03-12T00:32:37.406Z,953.2100
2023-03-12T00:32:48.585Z,953.2100
2023-03-12T00:32:59.732Z,953.2100
2023-03-12T00:33:10.815Z,953.2100
2023-03-12T00:33:21.886Z,953.2100
2023-03-12T00:33:32.938Z,953.2100
2023-03-12T00:33:44.007Z,953.2100
2023-03-12T00:33:55.080Z,953.2300
2023-03-12T00:34:06.165Z,953.2100
2023-03-12T00:34:17.207Z,953.2100
2023-03-12T00:34:28.286Z,953.2300
2023-03-12T00:34:39.381Z,953.2100
2023-03-12T00:34:50.440Z,953.2300
2023-03-12T00:35:01.495Z,953.2300
2023-03-12T00:35:12.570Z,953.2300
2023-03-12T00:35:23.629Z,953.2300
2023-03-12T00:35:34.749Z,953.2500
2023-03-12T00:35:45.809Z,953.2500
2023-03-12T00:35:56.913Z,953.2500
2023-03-12T00:36:07.934Z,953.2500
2023-03-12T00:36:19.030Z,953.2300
2023-03-12T00:36:30.086Z,953.2500
2023-03-12T00:36:41.124Z,953.2300
2023-03-12T00:36:52.190Z,953.2500
2023-03-12T00:37:03.233Z,953.2300
2023-03-12T00:37:14.319Z,953.2500
2023-03-12T00:37:25.382Z,953.2500
2023-03-12T00:37:36.438Z,953.2500
2023-03-12T00:37:47.505Z,953.2500
2023-03-12T00:37:58.609Z,953.2500
2023-03-12T00:38:09.673Z,953.2500
2023-03-12T00:38:20.733Z,953.2500
2023-03-12T00:38:31.799Z,953.2500
2023-03-12T00:38:42.881Z,953.2300
2023-03-12T00:38:53.957Z,953.2300
2023-03-12T00:39:05.003Z,953.2500
2023-03-12T00:39:16.075Z,953.2300
2023-03-12T00:39:27.153Z,953.2100
2023-03-12T00:39:38.211Z,953.2100
2023-03-12T00:39:49.293Z,953.2300
2023-03-12T00:40:00.340Z,953.2500
2023-03-12T00:40:11.431Z,953.2500
2023-03-12T00:40:22.472Z,953.2300
2023-03-12T00:40:33.530Z,953.2300
2023-03-12T00:40:44.591Z,953.2300
2023-03-12T00:40:55.644Z,953.2300
2023-03-12T00:41:06.711Z,953.2300
2023-03-12T00:41:17.753Z,953.2300
2023-03-12T00:41:28.856Z,953.2300
2023-03-12T00:41:39.892Z,953.2300
2023-03-12T00:41:50.964Z,953.2500
2023-03-12T00:42:02.024Z,953.2500
2023-03-12T00:42:13.106Z,953.2300
2023-03-12T00:42:24.167Z,953.2500
2023-03-12T00:42:35.221Z,953.2300
2023-03-12T00:42:46.301Z,953.2300
2023-03-12T00:42:57.358Z,953.2300
2023-03-12T00:43:08.457Z,953.2300
2023-03-12T00:43:19.520Z,953.2500
2023-03-12T00:43:30.596Z,953.2500
2023-03-12T00:43:41.634Z,953.2300
2023-03-12T00:43:52.698Z,953.2700
2023-03-12T00:44:03.729Z,953.2500
2023-03-12T00:44:14.773Z,953.2500
2023-03-12T00:44:25.872Z,953.2300
2023-03-12T00:44:36.931Z,953.2500
2023-03-12T00:44:48.007Z,953.2500
2023-03-12T00:44:59.037Z,953.2700
2023-03-12T00:45:10.080Z,953.2500
2023-03-12T00:45:21.166Z,953.2700
2023-03-12T00:45:32.214Z,953.2700
2023-03-12T00:45:43.273Z,953.2700
2023-03-12T00:45:54.322Z,953.2700
2023-03-12T00:46:05.352Z,953.2500
2023-03-12T00:46:16.484Z,953.2500
2023-03-12T00:46:27.583Z,953.2500
2023-03-12T00:46:38.641Z,953.2700
2023-03-12T00:46:49.718Z,953.2700
2023-03-12T00:47:00.863Z,953.2700
2023-03-12T00:47:11.969Z,953.2700
2023-03-12T00:47:23.032Z,953.2700
2023-03-12T00:47:34.093Z,953.2900
2023-03-12T00:47:45.184Z,953.2900
2023-03-12T00:47:56.257Z,953.2700
2023-03-12T00:48:07.316Z,953.2900
2023-03-12T00:48:18.425Z,953.2700
2023-03-12T00:48:29.489Z,953.3100
2023-03-12T00:48:40.543Z,953.2900
2023-03-12T00:48:51.610Z,953.2900
2023-03-12T00:49:02.757Z,953.2900
2023-03-12T00:49:13.798Z,953.2900
2023-03-12T00:49:24.876Z,953.2900
2023-03-12T00:49:35.999Z,953.2900
2023-03-12T00:49:47.080Z,953.2900
2023-03-12T00:49:58.131Z,953.3100
2023-03-12T00:50:09.188Z,953.2900
2023-03-12T00:50:20.251Z,953.2900
2023-03-12T00:50:31.322Z,953.3100
2023-03-12T00:50:42.403Z,953.2900
2023-03-12T00:50:53.458Z,953.2900
2023-03-12T00:51:04.552Z,953.2500
2023-03-12T00:51:15.610Z,953.2700
2023-03-12T00:51:26.662Z,953.2700
2023-03-12T00:51:37.714Z,953.2900
2023-03-12T00:51:48.800Z,953.2900
2023-03-12T00:51:59.878Z,953.2700
2023-03-12T00:52:10.950Z,953.2900
2023-03-12T00:52:22.010Z,953.2900
2023-03-12T00:52:33.081Z,953.2900
2023-03-12T00:52:44.125Z,953.2900
2023-03-12T00:52:55.163Z,953.2700
2023-03-12T00:53:06.202Z,953.2700
2023-03-12T00:53:17.293Z,953.2900
2023-03-12T00:53:28.408Z,953.2700
2023-03-12T00:53:39.453Z,953.2700
2023-03-12T00:53:50.505Z,953.2700
2023-03-12T00:54:01.521Z,953.2700
2023-03-12T00:54:12.584Z,953.2500
2023-03-12T00:54:23.641Z,953.2700
2023-03-12T00:54:34.696Z,953.2700
2023-03-12T00:54:45.760Z,953.2700
2023-03-12T00:54:56.837Z,953.2700
2023-03-12T00:55:07.890Z,953.2700
2023-03-12T00:55:18.949Z,953.2900
2023-03-12T00:55:30.025Z,953.2700
2023-03-12T00:55:41.093Z,953.2700
2023-03-12T00:55:52.166Z,953.2700
2023-03-12T00:56:03.219Z,953.2300
2023-03-12T00:56:14.286Z,953.2300
2023-03-12T00:56:25.340Z,953.2900
2023-03-12T00:56:36.417Z,953.2700
2023-03-12T00:56:47.481Z,953.2700
2023-03-12T00:56:58.545Z,953.2700
2023-03-12T00:57:09.656Z,953.2500
2023-03-12T00:57:20.660Z,953.2700
2023-03-12T00:57:31.722Z,953.2700
2023-03-12T00:57:42.785Z,953.2700
2023-03-12T00:57:53.867Z,953.2700
2023-03-12T00:58:04.952Z,953.2900
2023-03-12T00:58:16.025Z,953.2700
2023-03-12T00:58:27.067Z,953.2500
2023-03-12T00:58:38.191Z,953.2500
2023-03-12T00:58:49.216Z,953.2700
2023-03-12T00:59:00.305Z,953.2500
2023-03-12T00:59:11.382Z,953.2700
2023-03-12T00:59:22.430Z,953.2500
2023-03-12T00:59:33.510Z,953.2700
2023-03-12T00:59:44.583Z,953.2500
2023-03-12T00:59:55.619Z,953.2500
2023-03-12T01:00:06.684Z,953.2700
2023-03-12T01:00:17.740Z,953.2700
2023-03-12T01:00:28.851Z,953.2700
2023-03-12T01:00:39.923Z,953.2100
2023-03-12T01:00:51.039Z,953.2100
2023-03-12T01:01:02.244Z,953.2100
2023-03-12T01:01:13.312Z,953.2100
2023-03-12T01:01:24.425Z,953.2100
2023-03-12T01:01:35.493Z,953.2100
2023-03-12T01:01:46.558Z,953.1900
2023-03-12T01:01:57.651Z,953.1700
2023-03-12T01:02:08.678Z,953.1700
2023-03-12T01:02:19.720Z,953.1900
2023-03-12T01:02:30.805Z,953.1900
2023-03-12T01:02:41.860Z,953.1900
2023-03-12T01:02:52.956Z,953.1700
2023-03-12T01:03:04.017Z,953.1900
2023-03-12T01:03:15.080Z,953.1900
2023-03-12T01:03:26.146Z,953.1700
2023-03-12T01:03:37.292Z,953.1900
2023-03-12T01:03:48.430Z,953.1700
2023-03-12T01:03:59.508Z,953.1900
2023-03-12T01:04:10.628Z,953.1900
2023-03-12T01:04:21.761Z,953.1900
2023-03-12T01:04:32.837Z,953.2100
2023-03-12T01:04:43.886Z,953.1900
2023-03-12T01:04:55.001Z,953.2300
2023-03-12T01:05:06.041Z,953.2100
2023-03-12T01:05:17.102Z,953.2300
2023-03-12T01:05:28.173Z,953.2300
2023-03-12T01:05:39.250Z,953.2300
2023-03-12T01:05:50.312Z,953.2300
2023-03-12T01:06:01.392Z,953.2300
2023-03-12T01:06:12.422Z,953.2100
2023-03-12T01:06:23.502Z,953.2100
2023-03-12T01:06:34.567Z,953.2300
2023-03-12T01:06:45.644Z,953.1700
2023-03-12T01:06:56.700Z,953.1900
2023-03-12T01:07:07.774Z,953.1900
2023-03-12T01:07:18.841Z,953.2100
2023-03-12T01:07:29.901Z,953.2100
2023-03-12T01:07:40.969Z,953.2100
2023-03-12T01:07:52.038Z,953.2300
2023-03-12T01:08:03.081Z,953.2300
2023-03-12T01:08:14.138Z,953.2100
2023-03-12T01:08:25.214Z,953.2100
2023-03-12T01:08:36.265Z,953.1900
2023-03-12T01:08:47.325Z,953.2100
2023-03-12T01:08:58.420Z,953.1900
2023-03-12T01:09:09.494Z,953.2100
2023-03-12T01:09:20.532Z,953.2100
2023-03-12T01:09:31.593Z,953.1900
2023-03-12T01:09:42.672Z,953.2300
2023-03-12T01:09:53.720Z,953.1900
2023-03-12T01:10:04.831Z,953.2500
2023-03-12T01:10:15.875Z,953.2300
2023-03-12T01:10:26.915Z,953.2500
2023-03-12T01:10:37.992Z,953.2500
2023-03-12T01:10:49.051Z,953.2700
2023-03-12T01:11:00.209Z,953.2700
2023-03-12T01:11:11.271Z,953.2500
2023-03-12T01:11:22.361Z,953.2900
2023-03-12T01:11:33.404Z,953.2700
2023-03-12T01:11:44.446Z,953.2700
2023-03-12T01:11:55.520Z,953.2700
2023-03-12T01:12:06.605Z,953.2900
2023-03-12T01:12:17.670Z,953.2900
2023-03-12T01:12:28.704Z,953.2900
2023-03-12T01:12:39.766Z,953.2900
2023-03-12T01:12:50.838Z,953.3100
2023-03-12T01:13:01.886Z,953.3100
2023-03-12T01:13:12.945Z,953.3100
2023-03-12T01:13:24.016Z,953.3100
2023-03-12T01:13:35.081Z,953.3300
2023-03-12T01:13:46.121Z,953.3300
2023-03-12T01:13:57.194Z,953.3300
2023-03-12T01:14:08.261Z,953.3100
2023-03-12T01:14:19.339Z,953.3100
2023-03-12T01:14:30.380Z,953.3300
2023-03-12T01:14:41.398Z,953.3300
2023-03-12T01:14:52.479Z,953.3500
2023-03-12T01:15:03.553Z,953.3500
2023-03-12T01:15:14.596Z,953.3300
2023-03-12T01:15:25.651Z,953.3300
2023-03-12T01:15:36.697Z,953.3500
2023-03-12T01:15:47.778Z,953.3700
2023-03-12T01:15:58.918Z,953.3300
2023-03-12T01:16:10.060Z,953.3300
2023-03-12T01:16:21.130Z,953.3500
2023-03-12T01:16:32.311Z,953.3500
2023-03-12T01:16:43.405Z,953.3500
2023-03-12T01:16:54.464Z,953.3700
2023-03-12T01:17:05.516Z,953.3300
2023-03-12T01:17:16.579Z,953.3300
2023-03-12T01:17:27.616Z,953.3500
2023-03-12T01:17:38.673Z,953.3100
2023-03-12T01:17:49.744Z,953.3500
2023-03-12T01:18:00.817Z,953.3300
2023-03-12T01:18:11.887Z,953.3100
2023-03-12T01:18:22.945Z,953.3300
2023-03-12T01:18:34.013Z,953.3300
2023-03-12T01:18:45.062Z,953.3300
2023-03-12T01:18:56.129Z,953.3300
2023-03-12T01:19:07.236Z,953.3500
2023-03-12T01:19:18.337Z,953.3300
2023-03-12T01:19:29.376Z,953.3300
2023-03-12T01:19:40.428Z,953.2900
2023-03-12T01:19:51.465Z,953.2900
2023-03-12T01:20:02.529Z,953.3100
2023-03-12T01:20:13.560Z,953.3500
2023-03-12T01:20:24.635Z,953.3300
2023-03-12T01:20:35.782Z,953.3300
2023-03-12T01:20:46.853Z,953.3100
2023-03-12T01:20:57.915Z,953.3100
2023-03-12T01:21:08.985Z,953.3300
2023-03-12T01:21:20.032Z,953.3300
2023-03-12T01:21:31.100Z,953.3300
2023-03-12T01:21:42.144Z,953.3500
2023-03-12T01:21:53.223Z,953.3300
2023-03-12T01:22:04.337Z,953.3300
2023-03-12T01:22:15.374Z,953.3100
2023-03-12T01:22:26.441Z,953.3100
2023-03-12T01:22:37.513Z,953.3100
2023-03-12T01:22:48.581Z,953.3300
2023-03-12T01:22:59.633Z,953.3500
2023-03-12T01:23:10.686Z,953.3500
2023-03-12T01:23:21.771Z,953.3300
2023-03-12T01:23:32.834Z,953.3300
2023-03-12T01:23:43.877Z,953.3300
2023-03-12T01:23:54.929Z,953.3500
2023-03-12T01:24:05.989Z,953.3300
2023-03-12T01:24:17.056Z,953.3300
2023-03-12T01:24:28.151Z,953.3100
2023-03-12T01:24:39.205Z,953.3300
2023-03-12T01:24:50.244Z,953.3300
2023-03-12T01:25:01.321Z,953.3300
2023-03-12T01:25:12.393Z,953.3500
2023-03-12T01:25:23.464Z,953.3500
2023-03-12T01:25:34.547Z,953.3300
2023-03-12T01:25:45.601Z,953.3300
2023-03-12T01:25:56.633Z,953.3100
2023-03-12T01:26:07.688Z,953.3300
2023-03-12T01:26:18.771Z,953.3300
2023-03-12T01:26:29.811Z,953.3300
2023-03-12T01:26:40.854Z,953.3500
2023-03-12T01:26:51.916Z,953.3100
2023-03-12T01:27:02.958Z,953.3300
2023-03-12T01:27:14.033Z,953.3300
2023-03-12T01:27:25.105Z,953.3300
2023-03-12T01:27:36.168Z,953.3300
2023-03-12T01:27:47.233Z,953.2700
2023-03-12T01:27:58.277Z,953.2900
2023-03-12T01:28:09.346Z,953.3100
2023-03-12T01:28:20.385Z,953.3100
2023-03-12T01:28:31.454Z,953.3100
2023-03-12T01:28:42.523Z,953.3100
2023-03-12T01:28:53.596Z,953.3300
2023-03-12T01:29:04.650Z,953.3300
2023-03-12T01:29:15.723Z,953.3300
2023-03-12T01:29:26.794Z,953.3100
2023-03-12T01:29:37.903Z,953.3300
2023-03-12T01:29:48.980Z,953.3300
2023-03-12T01:30:00.037Z,953.3100
2023-03-12T01:30:11.078Z,953.3100
2023-03-12T01:30:22.149Z,953.3100
2023-03-12T01:30:33.198Z,953.3300
2023-03-12T01:30:44.258Z,953.3300
2023-03-12T01:30:55.324Z,953.3300
2023-03-12T01:31:06.496Z,953.3100
2023-03-12T01:31:17.603Z,953.3300
2023-03-12T01:31:28.655Z,953.3300
2023-03-12T01:31:39.777Z,953.3300
2023-03-12T01:31:50.874Z,953.3700
2023-03-12T01:32:01.929Z,953.3700
2023-03-12T01:32:12.999Z,953.3700
2023-03-12T01:32:24.134Z,953.3700
2023-03-12T01:32:35.262Z,953.3700
2023-03-12T01:32:46.381Z,953.3700
2023-03-12T01:32:57.402Z,953.3900
2023-03-12T01:33:08.466Z,953.3500
2023-03-12T01:33:19.517Z,953.3700
2023-03-12T01:33:30.574Z,953.3700
2023-03-12T01:33:41.638Z,953.3300
2023-03-12T01:33:52.709Z,953.3500
2023-03-12T01:34:03.769Z,953.3700
2023-03-12T01:34:14.820Z,953.3700
2023-03-12T01:34:25.880Z,953.3700
2023-03-12T01:34:36.918Z,953.3700
2023-03-12T01:34:48.043Z,953.3900
2023-03-12T01:34:59.083Z,953.3700
2023-03-12T01:35:10.248Z,953.3700
2023-03-12T01:35:21.359Z,953.3700
2023-03-12T01:35:32.550Z,953.3900
2023-03-12T01:35:43.859Z,953.3700
2023-03-12T01:35:55.195Z,953.3900
2023-03-12T01:36:06.369Z,953.4100
2023-03-12T01:36:17.451Z,953.3900
2023-03-12T01:36:28.632Z,953.3900
2023-03-12T01:36:39.708Z,953.3900
2023-03-12T01:36:50.764Z,953.3500
2023-03-12T01:37:01.839Z,953.3700
2023-03-12T01:37:12.906Z,953.3700
2023-03-12T01:37:23.967Z,953.3700
2023-03-12T01:37:35.024Z,953.3700
2023-03-12T01:37:46.067Z,953.3500
2023-03-12T01:37:57.134Z,953.3500
2023-03-12T01:38:08.200Z,953.3700
2023-03-12T01:38:19.265Z,953.3900
2023-03-12T01:38:30.347Z,953.3900
2023-03-12T01:38:41.421Z,953.3700
2023-03-12T01:38:52.492Z,953.3900
2023-03-12T01:39:03.562Z,953.3700
2023-03-12T01:39:14.629Z,953.3900
2023-03-12T01:39:25.699Z,953.3700
2023-03-12T01:39:36.761Z,953.4100
2023-03-12T01:39:47.810Z,953.3700
2023-03-12T01:39:58.914Z,953.3700
2023-03-12T01:40:09.970Z,953.3900
2023-03-12T01:40:21.033Z,953.3900
2023-03-12T01:40:32.104Z,953.3900
2023-03-12T01:40:43.193Z,953.3900
2023-03-12T01:40:54.251Z,953.3900
2023-03-12T01:41:05.304Z,953.3900
2023-03-12T01:41:16.360Z,953.3700
2023-03-12T01:41:27.448Z,953.3900
2023-03-12T01:41:38.479Z,953.3900
2023-03-12T01:41:49.560Z,953.3900
2023-03-12T01:42:00.633Z,953.3700
2023-03-12T01:42:11.715Z,953.3700
2023-03-12T01:42:22.784Z,953.3700
2023-03-12T01:42:33.855Z,953.3700
2023-03-12T01:42:44.904Z,953.3900
2023-03-12T01:42:55.971Z,953.3900
2023-03-12T01:43:07.044Z,953.4100
2023-03-12T01:43:18.103Z,953.3900
2023-03-12T01:43:29.142Z,953.3900
2023-03-12T01:43:40.215Z,953.4100
2023-03-12T01:43:51.223Z,953.3900
2023-03-12T01:44:02.330Z,953.4300
2023-03-12T01:44:13.376Z,953.4100
2023-03-12T01:44:24.421Z,953.4100
2023-03-12T01:44:35.473Z,953.4300
2023-03-12T01:44:46.512Z,953.4100
2023-03-12T01:44:57.597Z,953.4300
2023-03-12T01:45:08.691Z,953.4300
2023-03-12T01:45:19.754Z,953.4400
2023-03-12T01:45:30.836Z,953.4300
2023-03-12T01:45:41.901Z,953.4300
2023-03-12T01:45:53.004Z,953.4400
2023-03-12T01:46:04.083Z,953.4400
2023-03-12T01:46:15.156Z,953.4600
2023-03-12T01:46:26.210Z,953.4100
2023-03-12T01:46:37.271Z,953.4300
2023-03-12T01:46:48.289Z,953.4300
2023-03-12T01:46:59.350Z,953.4300
2023-03-12T01:47:10.400Z,953.4300
2023-03-12T01:47:21.427Z,953.4300
2023-03-12T01:47:32.501Z,953.4100
2023-03-12T01:47:43.554Z,953.4100
2023-03-12T01:47:54.626Z,953.3900
2023-03-12T01:48:05.630Z,953.4300
2023-03-12T01:48:16.694Z,953.4100
2023-03-12T01:48:27.751Z,953.4100
2023-03-12T01:48:38.837Z,953.3900
2023-03-12T01:48:49.912Z,953.4100
2023-03-12T01:49:00.956Z,953.4100
2023-03-12T01:49:12.015Z,953.4100
2023-03-12T01:49:23.084Z,953.3900
2023-03-12T01:49:34.137Z,953.3900
2023-03-12T01:49:45.211Z,953.3700
2023-03-12T01:49:56.288Z,953.3900
2023-03-12T01:50:07.368Z,953.3900
2023-03-12T01:50:18.497Z,953.3900
2023-03-12T01:50:29.529Z,953.4100
2023-03-12T01:50:40.570Z,953.4100
2023-03-12T01:50:51.670Z,953.3900
2023-03-12T01:51:02.755Z,953.3900
2023-03-12T01:51:13.794Z,953.3900
2023-03-12T01:51:24.870Z,953.3900
2023-03-12T01:51:35.913Z,953.3900
2023-03-12T01:51:46.994Z,953.3700
2023-03-12T01:51:58.079Z,953.3700
2023-03-12T01:52:09.121Z,953.3700
2023-03-12T01:52:20.183Z,953.3500
2023-03-12T01:52:31.232Z,953.3700
2023-03-12T01:52:42.308Z,953.3500
2023-03-12T01:52:53.377Z,953.3700
2023-03-12T01:53:04.460Z,953.3500
2023-03-12T01:53:15.520Z,953.3300
2023-03-12T01:53:26.583Z,953.3500
2023-03-12T01:53:37.650Z,953.3300
2023-03-12T01:53:48.736Z,953.3300
2023-03-12T01:53:59.792Z,953.3300
2023-03-12T01:54:10.824Z,953.3500
2023-03-12T01:54:21.856Z,953.3300
2023-03-12T01:54:32.923Z,953.3300
2023-03-12T01:54:43.982Z,953.3100
2023-03-12T01:54:55.038Z,953.3300
2023-03-12T01:55:06.125Z,953.3300
2023-03-12T01:55:17.198Z,953.3300
2023-03-12T01:55:28.274Z,953.3300
2023-03-12T01:55:39.307Z,953.3300
2023-03-12T01:55:50.389Z,953.3700
2023-03-12T01:56:01.460Z,953.3700
2023-03-12T01:56:12.497Z,953.3500
2023-03-12T01:56:23.565Z,953.3700
2023-03-12T01:56:34.627Z,953.3700
2023-03-12T01:56:45.678Z,953.3700
2023-03-12T01:56:56.752Z,953.3500
2023-03-12T01:57:07.835Z,953.3700
2023-03-12T01:57:18.925Z,953.3700
2023-03-12T01:57:29.996Z,953.3500
2023-03-12T01:57:41.051Z,953.3700
2023-03-12T01:57:52.122Z,953.3700
2023-03-12T01:58:03.168Z,953.3900
2023-03-12T01:58:14.244Z,953.3500
2023-03-12T01:58:25.288Z,953.3700
2023-03-12T01:58:36.356Z,953.3700
2023-03-12T01:58:47.438Z,953.3700
2023-03-12T01:58:58.497Z,953.3700
2023-03-12T01:59:09.539Z,953.3500
2023-03-12T01:59:20.580Z,953.3500
2023-03-12T01:59:31.645Z,953.3500
2023-03-12T01:59:42.693Z,953.3500
2023-03-12T01:59:53.774Z,953.3500
2023-03-12T02:00:04.822Z,953.3700
2023-03-12T02:00:15.876Z,953.3700
2023-03-12T02:00:26.940Z,953.3500
2023-03-12T02:00:38.048Z,953.3300
2023-03-12T02:00:49.148Z,953.3300
2023-03-12T02:01:00.280Z,953.3500
2023-03-12T02:01:11.344Z,953.3500
2023-03-12T02:01:22.460Z,953.3500
2023-03-12T02:01:33.656Z,953.3500
2023-03-12T02:01:44.722Z,953.3500
2023-03-12T02:01:55.794Z,953.3500
2023-03-12T02:02:06.884Z,953.3700
2023-03-12T02:02:17.958Z,953.3700
2023-03-12T02:02:29.006Z,953.3500
2023-03-12T02:02:40.068Z,953.3700
2023-03-12T02:02:51.144Z,953.3700
2023-03-12T02:03:02.231Z,953.3700
2023-03-12T02:03:13.288Z,953.3700
2023-03-12T02:03:24.370Z,953.3100
2023-03-12T02:03:35.495Z,953.3300
2023-03-12T02:03:46.613Z,953.3300
2023-03-12T02:03:57.752Z,953.3100
2023-03-12T02:04:08.895Z,953.3100
2023-03-12T02:04:20.030Z,953.3300
2023-03-12T02:04:31.171Z,953.3100
2023-03-12T02:04:42.369Z,953.3300
2023-03-12T02:04:53.426Z,953.3300
2023-03-12T02:05:04.509Z,953.3300
2023-03-12T02:05:15.574Z,953.3100
2023-03-12T02:05:26.668Z,953.3100
2023-03-12T02:05:37.692Z,953.3100
2023-03-12T02:05:48.777Z,953.3300
2023-03-12T02:05:59.840Z,953.3300
2023-03-12T02:06:10.904Z,953.3100
2023-03-12T02:06:21.961Z,953.3300
2023-03-12T02:06:33.021Z,953.3300
2023-03-12T02:06:44.094Z,953.3300
2023-03-12T02:06:55.155Z,953.3300
2023-03-12T02:07:06.243Z,953.3100
2023-03-12T02:07:17.284Z,953.3100
2023-03-12T02:07:28.328Z,953.3300
2023-03-12T02:07:39.370Z,953.3300
2023-03-12T02:07:50.450Z,953.3100
2023-03-12T02:08:01.481Z,953.3100
2023-03-12T02:08:12.574Z,953.3100
2023-03-12T02:08:23.638Z,953.3100
2023-03-12T02:08:34.678Z,953.3100
2023-03-12T02:08:45.810Z,953.3100
2023-03-12T02:08:56.840Z,953.3300
2023-03-12T02:09:08.067Z,953.2900
2023-03-12T02:09:19.485Z,953.3300
2023-03-12T02:09:30.760Z,953.2900
2023-03-12T02:09:41.956Z,953.2700
2023-03-12T02:09:52.993Z,953.2900
2023-03-12T02:10:04.037Z,953.2700
2023-03-12T02:10:15.089Z,953.2700